METAR Data
IDs: Format: Raw Decoded Include TAF

Data at: 1941 UTC 26 Sep 2021

METAR for:KIKK (Kankakee Arpt, IL, US)
Text:KIKK 261935Z AUTO 22014G19KT 10SM CLR 27/10 A2994 RMK AO2
Temperature: 27.0°C ( 81°F)
Dewpoint: 10.0°C ( 50°F) [RH = 34%]
Pressure (altimeter):29.94 inches Hg (1014.0 mb)
Winds:from the SW (220 degrees) at 16 MPH (14 knots; 7.2 m/s) gusting to 22 MPH (19 knots; 9.8 m/s)
Visibility:10 or more sm (16+ km)
Ceiling:at least 12,000 feet AGL
Clouds:sky clear below 12,000 feet AGL
QC Flag:automated observation with no human augmentation

TAF for:KIKK (Kankakee Arpt, IL, US)
Text:No data found